createdAt,value
2022-11-24T00:02:02.306Z,4.02
2022-11-24T00:04:30.308Z,4.07
2022-11-24T00:06:58.279Z,4.08
2022-11-24T00:09:26.215Z,4.05
2022-11-24T00:11:54.154Z,4.07
2022-11-24T00:14:22.160Z,4.07
2022-11-24T00:16:50.265Z,4.09
2022-11-24T00:19:20.080Z,4.01
2022-11-24T00:21:48.144Z,4.07
2022-11-24T00:24:16.134Z,4.11
2022-11-24T00:26:44.115Z,4.09
2022-11-24T00:29:12.585Z,4.05
2022-11-24T00:31:42.517Z,4.08
2022-11-24T00:34:13.316Z,4.10
2022-11-24T00:36:43.295Z,4.17
2022-11-24T00:39:13.880Z,4.11
2022-11-24T00:41:43.236Z,4.12
2022-11-24T00:44:10.967Z,4.18
2022-11-24T00:46:39.230Z,4.16
2022-11-24T00:49:07.467Z,4.17
2022-11-24T00:51:35.451Z,4.16
2022-11-24T00:54:06.329Z,4.17
2022-11-24T00:56:34.877Z,4.16
2022-11-24T00:59:02.835Z,4.17
2022-11-24T01:01:32.193Z,4.19
2022-11-24T01:04:02.449Z,4.16
2022-11-24T01:06:32.538Z,4.22
2022-11-24T01:09:00.707Z,4.17
2022-11-24T01:11:54.263Z,4.24
2022-11-24T01:14:23.975Z,4.25
2022-11-24T01:16:52.501Z,4.24
2022-11-24T01:19:20.605Z,4.27
2022-11-24T01:21:48.641Z,4.26
2022-11-24T01:24:17.353Z,4.20
2022-11-24T01:26:46.853Z,4.23
2022-11-24T01:29:14.835Z,4.28
2022-11-24T01:31:42.818Z,4.31
2022-11-24T01:34:10.808Z,4.35
2022-11-24T01:36:38.876Z,4.33
2022-11-24T01:39:07.637Z,4.30
2022-11-24T01:41:36.027Z,4.35
2022-11-24T01:44:24.141Z,4.34
2022-11-24T01:46:56.801Z,4.34
2022-11-24T01:49:28.239Z,4.38
2022-11-24T01:52:00.990Z,4.42
2022-11-24T01:54:32.393Z,4.40
2022-11-24T01:57:07.755Z,4.36
2022-11-24T01:59:37.804Z,4.41
2022-11-24T02:02:06.420Z,4.45
2022-11-24T02:04:35.726Z,4.43
2022-11-24T02:07:06.997Z,4.47
2022-11-24T02:09:40.516Z,4.43
2022-11-24T02:12:10.667Z,4.45
2022-11-24T02:14:43.067Z,4.50
2022-11-24T02:17:11.414Z,4.48
2022-11-24T02:19:49.868Z,4.46
2022-11-24T02:22:24.741Z,4.50
2022-11-24T02:24:57.905Z,4.48
2022-11-24T02:27:27.258Z,4.49
2022-11-24T02:29:55.054Z,4.50
2022-11-24T02:32:24.346Z,4.48
2022-11-24T02:35:00.306Z,4.52
2022-11-24T02:37:28.247Z,4.45
2022-11-24T02:39:56.213Z,4.49
2022-11-24T02:42:26.742Z,4.53
2022-11-24T02:44:59.657Z,4.53
2022-11-24T02:47:27.762Z,4.40
2022-11-24T02:49:55.669Z,4.52
2022-11-24T02:52:23.628Z,4.62
2022-11-24T02:54:51.543Z,4.56
2022-11-24T02:57:19.488Z,4.55
2022-11-24T02:59:47.430Z,4.55
2022-11-24T03:02:16.793Z,4.58
2022-11-24T03:04:45.545Z,4.54
2022-11-24T03:07:13.585Z,4.60
2022-11-24T03:09:41.839Z,4.53
2022-11-24T03:12:09.793Z,4.64
2022-11-24T03:14:37.736Z,4.61
2022-11-24T03:17:05.837Z,4.67
2022-11-24T03:19:35.251Z,4.63
2022-11-24T03:22:03.131Z,4.68
2022-11-24T03:24:31.232Z,4.69
2022-11-24T03:26:59.375Z,4.66
2022-11-24T03:29:27.464Z,4.74
2022-11-24T03:31:55.408Z,4.71
2022-11-24T03:34:23.347Z,4.73
2022-11-24T03:36:52.699Z,4.66
2022-11-24T03:39:20.481Z,4.65
2022-11-24T03:41:51.378Z,4.64
2022-11-24T03:44:19.416Z,4.63
2022-11-24T03:46:47.404Z,4.63
2022-11-24T03:49:15.460Z,4.70
2022-11-24T03:51:43.457Z,4.70
2022-11-24T03:54:12.775Z,4.73
2022-11-24T03:56:40.492Z,4.72
2022-11-24T03:59:08.819Z,4.65
2022-11-24T04:01:36.795Z,4.75
2022-11-24T04:04:04.865Z,4.73
2022-11-24T04:06:32.845Z,4.75
2022-11-24T04:09:01.347Z,4.68
2022-11-24T04:11:48.085Z,4.75
2022-11-24T04:14:16.151Z,4.76
2022-11-24T04:16:44.170Z,4.70
2022-11-24T04:19:12.265Z,4.75
2022-11-24T04:21:40.289Z,4.71
2022-11-24T04:24:08.526Z,4.68
2022-11-24T04:26:37.925Z,4.73
2022-11-24T04:29:05.915Z,4.80
2022-11-24T04:31:34.029Z,4.76
2022-11-24T04:34:02.084Z,4.78
2022-11-24T04:36:30.074Z,4.79
2022-11-24T04:39:23.378Z,4.73
2022-11-24T04:41:48.463Z,4.75
2022-11-24T04:44:16.548Z,4.77
2022-11-24T04:46:44.581Z,4.82
2022-11-24T04:49:12.685Z,4.71
2022-11-24T04:51:41.421Z,4.75
2022-11-24T04:54:11.843Z,4.81
2022-11-24T04:56:40.115Z,4.84
2022-11-24T04:59:13.673Z,4.81
2022-11-24T05:01:42.043Z,4.80
2022-11-24T05:04:11.086Z,4.81
2022-11-24T05:06:39.304Z,4.85
2022-11-24T05:09:08.322Z,4.82
2022-11-24T05:11:35.303Z,4.78
2022-11-24T05:14:03.265Z,4.80
2022-11-24T05:16:32.609Z,4.71
2022-11-24T05:19:00.656Z,4.76
2022-11-24T05:21:29.535Z,4.75
2022-11-24T05:23:57.502Z,4.81
2022-11-24T05:26:25.484Z,4.79
2022-11-24T05:28:53.413Z,4.79
2022-11-24T05:31:21.499Z,4.82
2022-11-24T05:33:51.562Z,4.79
2022-11-24T05:36:33.422Z,4.82
2022-11-24T05:39:01.790Z,4.91
2022-11-24T05:41:29.752Z,4.85
2022-11-24T05:43:57.685Z,4.84
2022-11-24T05:46:25.716Z,4.79
2022-11-24T05:48:55.071Z,4.88
2022-11-24T05:51:22.777Z,4.93
2022-11-24T05:53:50.671Z,4.91
2022-11-24T05:56:18.552Z,4.90
2022-11-24T05:58:46.579Z,4.89
2022-11-24T06:01:14.490Z,4.84
2022-11-24T06:03:42.462Z,4.86
2022-11-24T06:06:12.096Z,4.91
2022-11-24T06:08:40.082Z,4.86
2022-11-24T06:11:18.600Z,4.91
2022-11-24T06:13:48.570Z,4.90
2022-11-24T06:16:17.017Z,4.96
2022-11-24T06:18:45.059Z,5.01
2022-11-24T06:21:14.426Z,4.97
2022-11-24T06:23:42.414Z,4.98
2022-11-24T06:26:10.682Z,5.04
2022-11-24T06:28:38.689Z,5.03
2022-11-24T06:31:07.298Z,5.04
2022-11-24T06:33:36.568Z,5.02
2022-11-24T06:36:05.138Z,5.04
2022-11-24T06:38:36.063Z,5.05
2022-11-24T06:41:06.350Z,4.98
2022-11-24T06:43:36.278Z,5.08
2022-11-24T06:46:05.114Z,5.06
2022-11-24T06:48:33.295Z,5.08
2022-11-24T06:51:02.191Z,5.05
2022-11-24T06:53:31.773Z,5.09
2022-11-24T06:56:03.270Z,5.04
2022-11-24T06:58:31.259Z,5.08
2022-11-24T07:00:59.237Z,5.13
2022-11-24T07:03:27.637Z,5.12
2022-11-24T07:05:58.386Z,5.18
2022-11-24T07:08:27.104Z,5.11
2022-11-24T07:10:55.060Z,5.13
2022-11-24T07:13:24.366Z,5.18
2022-11-24T07:15:52.171Z,5.35
2022-11-24T07:18:20.117Z,5.32
2022-11-24T07:20:48.040Z,5.36
2022-11-24T07:23:16.037Z,5.37
2022-11-24T07:25:44.002Z,5.38
2022-11-24T07:28:11.998Z,5.53
2022-11-24T07:30:42.358Z,5.36
2022-11-24T07:33:10.392Z,5.36
2022-11-24T07:35:38.376Z,5.36
2022-11-24T07:38:06.410Z,5.34
2022-11-24T07:40:34.381Z,5.28
2022-11-24T07:43:02.711Z,5.41
2022-11-24T07:45:31.831Z,5.43
2022-11-24T07:48:01.182Z,5.46
2022-11-24T07:50:28.950Z,5.49
2022-11-24T07:52:56.878Z,5.46
2022-11-24T07:55:24.800Z,5.43
2022-11-24T07:57:52.768Z,5.42
2022-11-24T08:00:21.367Z,5.39
2022-11-24T08:02:49.291Z,5.47
2022-11-24T08:05:18.694Z,5.47
2022-11-24T08:07:46.711Z,5.48
2022-11-24T08:10:14.733Z,5.50
2022-11-24T08:12:43.889Z,5.52
2022-11-24T08:15:11.974Z,5.45
2022-11-24T08:17:39.981Z,5.46
2022-11-24T08:20:09.847Z,5.44
2022-11-24T08:22:39.109Z,5.54
2022-11-24T08:25:07.284Z,5.52
2022-11-24T08:27:35.243Z,5.49
2022-11-24T08:30:03.189Z,5.48
2022-11-24T08:32:31.181Z,5.56
2022-11-24T08:35:13.035Z,5.54
2022-11-24T08:37:43.129Z,5.60
2022-11-24T08:40:12.609Z,5.56
2022-11-24T08:42:40.868Z,5.56
2022-11-24T08:45:20.306Z,5.60
2022-11-24T08:47:53.624Z,5.59
2022-11-24T08:50:21.785Z,5.57
2022-11-24T08:52:53.056Z,5.60
2022-11-24T08:55:21.358Z,5.65
2022-11-24T08:57:49.313Z,5.74
2022-11-24T09:00:22.886Z,5.71
2022-11-24T09:02:58.591Z,5.72
2022-11-24T09:05:51.201Z,5.67
2022-11-24T09:08:16.129Z,5.72
2022-11-24T09:10:44.104Z,5.81
2022-11-24T09:13:12.064Z,5.81
2022-11-24T09:15:40.016Z,5.83
2022-11-24T09:18:07.992Z,5.79
2022-11-24T09:23:22.943Z,5.89
2022-11-24T09:25:50.857Z,5.92
2022-11-24T09:28:18.734Z,6.07
2022-11-24T09:30:46.759Z,6.11
2022-11-24T09:33:14.804Z,6.05
2022-11-24T09:35:42.719Z,6.16
2022-11-24T09:38:11.075Z,6.10
2022-11-24T09:40:40.464Z,6.16
2022-11-24T09:43:17.929Z,6.20
2022-11-24T09:46:07.663Z,6.21
2022-11-24T09:48:39.240Z,6.25
2022-11-24T09:51:12.092Z,6.33
2022-11-24T09:53:45.367Z,6.33
2022-11-24T09:56:21.568Z,6.32
2022-11-24T09:58:52.460Z,6.32
2022-11-24T10:01:25.338Z,6.25
2022-11-24T10:03:54.766Z,6.24
2022-11-24T10:06:26.325Z,6.34
2022-11-24T10:09:12.597Z,6.33
2022-11-24T10:11:51.627Z,6.15
2022-11-24T10:14:54.728Z,6.30
2022-11-24T10:17:33.287Z,6.35
2022-11-24T10:20:06.099Z,6.29
2022-11-24T10:22:46.396Z,6.30
2022-11-24T10:25:22.357Z,6.26
2022-11-24T10:27:57.758Z,6.37
2022-11-24T10:30:25.767Z,6.35
2022-11-24T10:32:58.618Z,6.34
2022-11-24T10:35:31.797Z,6.29
2022-11-24T10:38:11.436Z,6.39
2022-11-24T10:40:57.032Z,6.40
2022-11-24T10:43:28.994Z,6.35
2022-11-24T10:46:06.582Z,6.33
2022-11-24T10:48:41.942Z,6.34
2022-11-24T10:51:47.613Z,6.23
2022-11-24T10:54:18.567Z,6.36
2022-11-24T10:56:48.092Z,6.30
2022-11-24T10:59:36.607Z,6.34
2022-11-24T11:02:36.971Z,6.32
2022-11-24T11:05:41.712Z,6.34
2022-11-24T11:08:22.095Z,6.30
2022-11-24T11:10:51.766Z,6.43
2022-11-24T11:13:28.654Z,6.44
2022-11-24T11:15:59.771Z,6.51
2022-11-24T11:18:32.866Z,6.46
2022-11-24T11:21:03.031Z,6.57
2022-11-24T11:23:33.753Z,6.65
2022-11-24T11:26:32.108Z,6.63
2022-11-24T11:34:51.071Z,6.87
2022-11-24T11:37:20.927Z,6.91
2022-11-24T11:39:50.637Z,7.08
2022-11-24T11:42:53.721Z,7.15
2022-11-24T11:45:15.439Z,7.23
2022-11-24T11:47:47.720Z,7.42
2022-11-24T11:50:17.660Z,7.39
2022-11-24T11:53:10.647Z,7.52
2022-11-24T11:55:49.852Z,7.65
2022-11-24T11:58:44.155Z,7.74
2022-11-24T12:01:28.382Z,7.56
2022-11-24T12:04:08.984Z,7.87
2022-11-24T12:06:56.144Z,7.74
2022-11-24T12:09:39.762Z,7.81
2022-11-24T12:12:30.663Z,7.76
2022-11-24T12:15:11.205Z,7.75
2022-11-24T12:17:43.912Z,7.77
2022-11-24T12:20:25.156Z,7.72
2022-11-24T12:23:03.980Z,7.81
2022-11-24T12:25:38.220Z,7.72
2022-11-24T12:28:20.593Z,7.71
2022-11-24T12:31:03.037Z,7.86
2022-11-24T12:33:49.119Z,7.84
2022-11-24T12:36:38.140Z,7.79
2022-11-24T12:39:15.813Z,7.83
2022-11-24T12:41:53.418Z,7.88
2022-11-24T12:44:40.191Z,7.83
2022-11-24T12:47:17.798Z,7.87
2022-11-24T12:49:56.875Z,7.79
2022-11-24T12:52:29.680Z,7.83
2022-11-24T12:54:59.087Z,7.78
2022-11-24T12:57:31.664Z,7.78
2022-11-24T13:00:07.257Z,7.80
2022-11-24T13:02:48.397Z,7.80
2022-11-24T13:05:25.349Z,7.77
2022-11-24T13:07:59.779Z,7.80
2022-11-24T13:10:54.304Z,7.72
2022-11-24T13:13:19.474Z,7.79
2022-11-24T13:19:09.286Z,7.72
2022-11-24T13:22:02.716Z,7.76
2022-11-24T13:24:36.310Z,7.76
2022-11-24T13:27:27.813Z,7.76
2022-11-24T13:29:55.943Z,7.73
2022-11-24T13:32:59.447Z,7.76
2022-11-24T13:35:27.498Z,7.72
2022-11-24T13:37:55.513Z,7.79
2022-11-24T13:40:59.863Z,7.73
2022-11-24T13:43:32.191Z,7.69
2022-11-24T13:46:00.228Z,7.70
2022-11-24T13:49:02.728Z,7.70
2022-11-24T13:51:30.728Z,7.81
2022-11-24T13:54:00.909Z,7.83
2022-11-24T13:56:32.543Z,7.82
2022-11-24T13:59:18.761Z,7.88
2022-11-24T14:01:46.947Z,7.93
2022-11-24T14:04:36.256Z,7.86
2022-11-24T14:07:09.512Z,7.92
2022-11-24T14:09:43.951Z,7.87
2022-11-24T14:12:16.870Z,7.85
2022-11-24T14:14:46.749Z,7.77
2022-11-24T14:17:18.528Z,7.65
2022-11-24T14:19:48.619Z,7.65
2022-11-24T14:22:19.010Z,7.42
2022-11-24T14:24:52.505Z,7.42
2022-11-24T14:27:28.861Z,7.36
2022-11-24T14:29:58.638Z,7.20
2022-11-24T14:32:27.107Z,7.19
2022-11-24T14:34:55.678Z,7.24
2022-11-24T14:37:24.126Z,7.10
2022-11-24T14:39:52.196Z,7.15
2022-11-24T14:42:24.345Z,7.12
2022-11-24T14:44:55.720Z,7.12
2022-11-24T14:47:31.206Z,7.23
2022-11-24T14:50:10.363Z,7.15
2022-11-24T14:52:46.415Z,7.11
2022-11-24T14:55:26.808Z,7.11
2022-11-24T14:57:56.639Z,6.93
2022-11-24T15:00:29.254Z,7.24
2022-11-24T15:03:09.604Z,7.14
2022-11-24T15:06:00.618Z,7.15
2022-11-24T15:08:38.898Z,7.12
2022-11-24T15:11:08.579Z,7.04
2022-11-24T15:13:39.226Z,6.99
2022-11-24T15:16:10.254Z,7.08
2022-11-24T15:18:42.985Z,7.05
2022-11-24T15:21:18.612Z,7.12
2022-11-24T15:24:06.956Z,7.04
2022-11-24T15:26:40.193Z,7.09
2022-11-24T15:29:11.647Z,7.06
2022-11-24T15:31:40.230Z,7.00
2022-11-24T15:34:09.024Z,6.95
2022-11-24T15:36:37.027Z,6.90
2022-11-24T15:39:05.061Z,6.93
2022-11-24T15:41:34.529Z,6.98
2022-11-24T15:44:02.571Z,6.97
2022-11-24T15:46:38.582Z,6.94
2022-11-24T15:49:07.633Z,6.93
2022-11-24T15:51:39.548Z,6.87
2022-11-24T15:54:11.068Z,6.86
2022-11-24T15:56:41.847Z,6.86
2022-11-24T15:59:18.786Z,6.98
2022-11-24T16:01:50.932Z,6.94
2022-11-24T16:04:19.097Z,6.86
2022-11-24T16:06:47.055Z,6.88
2022-11-24T16:09:17.257Z,6.90
2022-11-24T16:11:47.678Z,6.97
2022-11-24T16:14:15.710Z,7.06
2022-11-24T16:16:43.920Z,7.14
2022-11-24T16:19:15.835Z,7.12
2022-11-24T16:21:43.771Z,7.17
2022-11-24T16:24:11.907Z,7.18
2022-11-24T16:26:39.926Z,7.27
2022-11-24T16:29:08.038Z,7.17
2022-11-24T16:31:36.288Z,7.26
2022-11-24T16:34:04.387Z,7.23
2022-11-24T16:36:33.714Z,7.21
2022-11-24T16:39:01.689Z,7.23
2022-11-24T16:41:29.703Z,7.26
2022-11-24T16:43:58.074Z,7.33
2022-11-24T16:46:26.469Z,7.26
2022-11-24T16:48:56.079Z,7.36
2022-11-24T16:51:24.463Z,7.32
2022-11-24T16:53:58.937Z,7.42
2022-11-24T16:56:27.141Z,7.42
2022-11-24T16:58:55.721Z,7.35
2022-11-24T17:01:25.860Z,7.35
2022-11-24T17:03:54.424Z,7.31
2022-11-24T17:06:22.817Z,7.32
2022-11-24T17:08:50.799Z,7.25
2022-11-24T17:11:21.891Z,7.15
2022-11-24T17:13:50.244Z,7.22
2022-11-24T17:16:20.140Z,7.15
2022-11-24T17:18:48.896Z,7.21
2022-11-24T17:21:19.704Z,7.12
2022-11-24T17:23:48.347Z,7.14
2022-11-24T17:26:17.855Z,7.05
2022-11-24T17:28:47.187Z,6.93
2022-11-24T17:31:20.023Z,6.88
2022-11-24T17:33:48.090Z,6.90
2022-11-24T17:36:16.210Z,6.82
2022-11-24T17:38:44.304Z,6.78
2022-11-24T17:41:12.569Z,6.72
2022-11-24T17:43:41.017Z,6.74
2022-11-24T17:46:11.722Z,6.69
2022-11-24T17:48:39.806Z,6.65
2022-11-24T17:51:24.269Z,6.50
2022-11-24T17:54:05.985Z,6.44
2022-11-24T17:56:49.510Z,6.37
2022-11-24T17:59:17.510Z,6.28
2022-11-24T18:01:46.819Z,6.22
2022-11-24T18:04:14.792Z,6.17
2022-11-24T18:06:42.829Z,6.18
2022-11-24T18:09:11.015Z,6.10
2022-11-24T18:11:39.055Z,6.17
2022-11-24T18:14:07.031Z,6.12
2022-11-24T18:16:38.825Z,6.06
2022-11-24T18:19:13.236Z,6.04
2022-11-24T18:22:00.792Z,6.06
2022-11-24T18:24:36.356Z,5.98
2022-11-24T18:27:09.169Z,5.98
2022-11-24T18:29:56.372Z,6.03
2022-11-24T18:32:41.470Z,5.97
2022-11-24T18:35:21.835Z,6.00
2022-11-24T18:37:55.296Z,6.02
2022-11-24T18:40:28.541Z,6.02
2022-11-24T18:43:08.667Z,6.02
2022-11-24T18:45:39.308Z,6.05
2022-11-24T18:48:14.321Z,6.08
2022-11-24T18:51:18.916Z,6.02
2022-11-24T18:54:10.037Z,6.02
2022-11-24T18:59:47.660Z,6.04
2022-11-24T19:02:39.845Z,6.04
2022-11-24T19:05:18.548Z,6.10
2022-11-24T19:08:00.655Z,5.98
2022-11-24T19:10:28.698Z,6.01
2022-11-24T19:13:18.465Z,6.03
2022-11-24T19:16:15.694Z,6.07
2022-11-24T19:25:08.011Z,6.08
2022-11-24T19:28:05.537Z,5.99
2022-11-24T19:30:41.696Z,5.92
2022-11-24T19:33:35.637Z,5.80
2022-11-24T19:36:20.449Z,5.85
2022-11-24T19:39:10.023Z,5.84
2022-11-24T19:41:57.059Z,5.84
2022-11-24T19:44:56.410Z,5.80
2022-11-24T19:47:39.865Z,5.71
2022-11-24T19:50:25.443Z,5.71
2022-11-24T19:53:00.203Z,5.59
2022-11-24T19:55:28.221Z,5.68
2022-11-24T19:58:21.057Z,5.72
2022-11-24T20:01:22.525Z,5.75
2022-11-24T20:04:02.822Z,5.79
2022-11-24T20:06:42.711Z,5.74
2022-11-24T20:09:35.302Z,5.74
2022-11-24T20:12:21.135Z,5.73
2022-11-24T20:15:08.940Z,5.72
2022-11-24T20:17:51.917Z,5.38
2022-11-24T20:20:40.413Z,5.63
2022-11-24T20:23:20.624Z,5.63
2022-11-24T20:26:02.099Z,5.56
2022-11-24T20:28:40.058Z,5.61
2022-11-24T20:31:33.942Z,5.62
2022-11-24T20:34:11.488Z,5.37
2022-11-24T20:36:49.718Z,5.60
2022-11-24T20:39:30.270Z,5.55
2022-11-24T20:42:11.614Z,5.55
2022-11-24T20:44:45.171Z,5.45
2022-11-24T20:47:28.296Z,5.48
2022-11-24T20:50:02.362Z,5.37
2022-11-24T20:52:33.269Z,5.35
2022-11-24T20:55:21.266Z,5.33
2022-11-24T20:58:03.827Z,5.31
2022-11-24T21:00:47.435Z,5.26
2022-11-24T21:03:16.796Z,5.26
2022-11-24T21:05:57.794Z,5.33
2022-11-24T21:08:37.111Z,5.30
2022-11-24T21:11:20.261Z,5.26
2022-11-24T21:14:17.797Z,5.36
2022-11-24T21:16:51.564Z,5.39
2022-11-24T21:19:41.964Z,5.56
2022-11-24T21:22:10.010Z,5.60
2022-11-24T21:24:37.925Z,5.67
2022-11-24T21:27:05.883Z,5.62
2022-11-24T21:29:33.820Z,5.67
2022-11-24T21:32:02.042Z,5.67
2022-11-24T21:34:31.596Z,5.63
2022-11-24T21:36:59.629Z,5.68
2022-11-24T21:39:27.639Z,5.62
2022-11-24T21:41:55.730Z,5.59
2022-11-24T21:44:23.688Z,5.62
2022-11-24T21:46:55.960Z,5.61
2022-11-24T21:49:24.204Z,5.66
2022-11-24T21:51:55.874Z,5.78
2022-11-24T21:54:24.427Z,5.75
2022-11-24T21:56:52.452Z,5.74
2022-11-24T21:59:21.247Z,5.71
2022-11-24T22:01:49.278Z,5.75
2022-11-24T22:04:17.352Z,5.80
2022-11-24T22:06:45.327Z,5.83
2022-11-24T22:09:17.969Z,5.85
2022-11-24T22:11:46.742Z,5.75
2022-11-24T22:14:14.686Z,5.77
2022-11-24T22:16:42.719Z,5.89
2022-11-24T22:19:10.770Z,5.84
2022-11-24T22:21:38.870Z,5.83
2022-11-24T22:24:07.380Z,5.81
2022-11-24T22:26:36.945Z,5.90
2022-11-24T22:29:06.057Z,5.83
2022-11-24T22:31:34.523Z,5.87
2022-11-24T22:34:02.538Z,5.98
2022-11-24T22:36:31.344Z,5.84
2022-11-24T22:39:03.081Z,5.91
2022-11-24T22:41:32.232Z,5.89
2022-11-24T22:44:01.701Z,5.87
2022-11-24T22:46:31.211Z,5.91
2022-11-24T22:49:00.940Z,5.88
2022-11-24T22:51:31.303Z,5.89
2022-11-24T22:54:02.044Z,5.90
2022-11-24T22:56:32.558Z,6.02
2022-11-24T22:59:03.026Z,5.94
2022-11-24T23:01:31.935Z,5.91
2022-11-24T23:04:00.033Z,5.95
2022-11-24T23:06:29.969Z,5.88
2022-11-24T23:08:59.150Z,5.88
2022-11-24T23:11:34.908Z,5.82
2022-11-24T23:14:08.472Z,5.83
2022-11-24T23:16:36.503Z,5.78
2022-11-24T23:19:05.170Z,5.74
2022-11-24T23:21:34.717Z,5.75
2022-11-24T23:24:03.931Z,5.68
2022-11-24T23:26:32.801Z,5.64
2022-11-24T23:29:01.301Z,5.61
2022-11-24T23:31:30.790Z,5.61
2022-11-24T23:34:00.200Z,5.59
2022-11-24T23:36:29.072Z,5.55
2022-11-24T23:38:57.274Z,5.56
2022-11-24T23:41:26.820Z,5.61
2022-11-24T23:43:54.815Z,5.56
2022-11-24T23:46:24.409Z,5.53
2022-11-24T23:48:55.398Z,5.60
2022-11-24T23:51:25.196Z,5.57
2022-11-24T23:53:54.110Z,5.54
2022-11-24T23:56:24.056Z,5.52
2022-11-24T23:58:52.190Z,5.55
